Time;durP1;ratioP1;P1;durP2;ratioP2;P2;SDS_P1;SDS_P2;PMS_P1;PMS_P2;Temp;Humidity;BMP_temperature;BMP_pressure;BME280_temperature;BME280_humidity;BME280_pressure;Samples;Min_cycle;Max_cycle;Signal;HPM_P1;HPM_P2
2023/03/17 00:01:53;;;;;;;41.10;23.33;;;4.70;99.90;;;;;;5085116;28;20230;-67
2023/03/17 00:04:42;;;;;;;38.93;23.47;;;4.70;99.90;;;;;;5080606;28;20219;-65
2023/03/17 00:07:31;;;;;;;40.60;22.53;;;4.70;99.90;;;;;;5090880;28;20741;-64
2023/03/17 00:10:22;;;;;;;41.43;23.20;;;4.80;99.90;;;;;;5083966;28;20238;-64
2023/03/17 00:13:13;;;;;;;40.73;23.37;;;4.70;99.90;;;;;;5084218;28;20587;-66
2023/03/17 00:16:05;;;;;;;41.10;22.30;;;4.60;99.90;;;;;;5082593;28;20314;-64
2023/03/17 00:18:55;;;;;;;41.80;23.20;;;4.60;99.90;;;;;;5089106;28;20312;-65
2023/03/17 00:21:44;;;;;;;41.83;23.87;;;4.60;99.90;;;;;;5082152;28;20231;-66
2023/03/17 00:24:34;;;;;;;42.37;23.17;;;4.60;99.90;;;;;;5081566;28;20231;-63
2023/03/17 00:27:23;;;;;;;40.10;22.80;;;4.60;99.90;;;;;;5078375;28;20224;-65
2023/03/17 00:30:14;;;;;;;39.90;22.73;;;4.40;99.90;;;;;;5075206;28;20224;-63
2023/03/17 00:33:08;;;;;;;40.50;23.80;;;4.40;99.90;;;;;;5071623;28;20223;-65
2023/03/17 00:35:58;;;;;;;40.67;22.50;;;4.30;99.90;;;;;;5086924;27;20722;-64
2023/03/17 00:38:47;;;;;;;39.07;22.97;;;4.50;99.90;;;;;;5083650;28;20358;-64
2023/03/17 00:41:36;;;;;;;41.63;23.27;;;4.60;99.90;;;;;;5077976;28;20620;-65
2023/03/17 00:44:27;;;;;;;38.80;23.80;;;4.60;99.90;;;;;;5073838;28;20216;-63
2023/03/17 00:47:18;;;;;;;42.83;24.03;;;4.40;99.90;;;;;;5077788;28;20229;-65
2023/03/17 00:50:11;;;;;;;38.63;22.23;;;4.40;99.90;;;;;;5078398;28;20296;-65
2023/03/17 00:53:00;;;;;;;41.10;21.73;;;4.40;99.90;;;;;;5076827;27;20798;-65
2023/03/17 00:55:49;;;;;;;41.73;22.70;;;4.30;99.90;;;;;;5073586;28;20220;-63
2023/03/17 00:58:38;;;;;;;41.13;22.47;;;4.30;99.90;;;;;;5104880;27;20223;-65
2023/03/17 01:01:27;;;;;;;42.93;22.67;;;4.30;99.90;;;;;;5078827;28;20230;-66
2023/03/17 01:04:18;;;;;;;41.20;21.83;;;4.30;99.90;;;;;;5078867;28;20231;-67
2023/03/17 01:07:09;;;;;;;46.07;24.00;;;4.50;99.90;;;;;;5090728;28;20234;-69
2023/03/17 01:10:00;;;;;;;43.20;23.87;;;4.40;99.90;;;;;;5095832;27;20216;-67
2023/03/17 01:12:48;;;;;;;44.70;25.30;;;4.40;99.90;;;;;;5072614;28;20223;-65
2023/03/17 01:15:40;;;;;;;44.37;25.03;;;4.40;99.90;;;;;;5078671;28;20335;-65
2023/03/17 01:18:29;;;;;;;47.90;25.07;;;4.30;99.90;;;;;;5083548;28;20234;-64
2023/03/17 01:21:19;;;;;;;42.13;23.43;;;4.30;99.90;;;;;;5077485;28;20218;-64
2023/03/17 01:24:09;;;;;;;45.57;24.43;;;4.20;99.90;;;;;;5076988;28;20227;-64
2023/03/17 01:26:57;;;;;;;45.70;23.97;;;4.10;99.90;;;;;;5074779;28;20696;-63
2023/03/17 01:29:46;;;;;;;44.77;22.63;;;4.10;99.90;;;;;;5075092;28;20238;-66
2023/03/17 01:32:35;;;;;;;46.03;25.17;;;4.00;99.90;;;;;;5071266;28;20295;-65
2023/03/17 01:35:25;;;;;;;54.00;25.80;;;4.10;99.90;;;;;;5087363;27;20246;-66
2023/03/17 01:38:16;;;;;;;43.87;24.80;;;3.90;99.90;;;;;;5076834;28;20288;-65
2023/03/17 01:41:05;;;;;;;45.67;24.67;;;3.90;99.90;;;;;;5074580;28;20599;-64
2023/03/17 01:43:54;;;;;;;44.43;25.40;;;4.00;99.90;;;;;;5087666;28;20852;-63
2023/03/17 01:46:44;;;;;;;49.47;26.00;;;4.00;99.90;;;;;;5086749;28;20215;-64
2023/03/17 01:49:36;;;;;;;43.40;24.87;;;4.10;99.90;;;;;;5079983;28;20231;-63
2023/03/17 01:52:26;;;;;;;49.43;25.47;;;4.10;99.90;;;;;;5076711;28;20654;-62
2023/03/17 01:55:20;;;;;;;44.97;26.27;;;4.20;99.90;;;;;;5074056;28;20223;-63
2023/03/17 01:58:10;;;;;;;48.63;25.97;;;4.20;99.90;;;;;;5077633;28;20223;-64
2023/03/17 02:01:00;;;;;;;46.67;25.77;;;4.00;99.90;;;;;;5075550;28;20231;-66
2023/03/17 02:03:49;;;;;;;47.80;26.63;;;4.10;99.90;;;;;;5093153;28;20234;-65
2023/03/17 02:06:41;;;;;;;51.57;27.63;;;4.10;99.90;;;;;;5081912;28;20232;-64
2023/03/17 02:09:45;;;;;;;48.10;26.27;;;4.10;99.90;;;;;;5076166;28;20443;-67
2023/03/17 02:12:36;;;;;;;49.03;26.53;;;4.00;99.90;;;;;;5082874;28;20228;-64
2023/03/17 02:15:37;;;;;;;50.50;26.70;;;4.00;99.90;;;;;;5076313;28;20279;-64
2023/03/17 02:18:26;;;;;;;51.50;27.27;;;4.00;99.90;;;;;;5093396;27;20231;-65
2023/03/17 02:21:39;;;;;;;52.10;27.47;;;3.90;99.90;;;;;;5094197;27;20242;-67
2023/03/17 02:24:33;;;;;;;50.30;26.97;;;4.00;99.90;;;;;;5074028;28;20246;-65
2023/03/17 02:27:26;;;;;;;49.63;27.90;;;4.00;99.90;;;;;;5094104;28;20314;-64
2023/03/17 02:30:17;;;;;;;53.00;26.60;;;4.00;99.90;;;;;;5110592;27;20682;-65
2023/03/17 02:33:06;;;;;;;47.90;26.90;;;3.90;99.90;;;;;;5089314;28;20228;-66
2023/03/17 02:35:58;;;;;;;51.93;27.07;;;3.90;99.90;;;;;;5076980;28;20284;-63
2023/03/17 02:38:49;;;;;;;51.33;27.10;;;3.70;99.90;;;;;;5081878;28;20239;-64
2023/03/17 02:41:38;;;;;;;48.03;26.03;;;3.60;99.90;;;;;;5082667;28;20310;-64
2023/03/17 02:44:30;;;;;;;48.77;26.00;;;3.50;99.90;;;;;;5077264;28;20219;-64
2023/03/17 02:47:20;;;;;;;54.47;27.60;;;3.50;99.90;;;;;;5078551;28;20227;-67
2023/03/17 02:50:15;;;;;;;52.87;28.60;;;3.40;99.90;;;;;;5076713;28;20220;-65
2023/03/17 02:53:04;;;;;;;54.93;27.53;;;3.40;99.90;;;;;;5085355;28;20694;-65
2023/03/17 02:55:54;;;;;;;47.67;27.50;;;3.30;99.90;;;;;;5083445;28;21065;-66
2023/03/17 02:58:43;;;;;;;52.73;28.07;;;3.40;99.90;;;;;;5080003;28;20878;-67
2023/03/17 03:01:32;;;;;;;50.60;28.70;;;3.40;99.90;;;;;;5093875;28;20702;-67
2023/03/17 03:04:22;;;;;;;61.23;29.83;;;3.30;99.90;;;;;;5083042;28;20230;-66
2023/03/17 03:07:11;;;;;;;53.43;29.13;;;3.40;99.90;;;;;;5084012;28;20219;-66
2023/03/17 03:10:01;;;;;;;55.60;28.93;;;3.20;99.90;;;;;;5082738;28;20901;-66
2023/03/17 03:12:51;;;;;;;55.10;29.67;;;3.10;99.90;;;;;;5083103;28;20875;-64
2023/03/17 03:15:45;;;;;;;57.30;30.10;;;3.10;99.90;;;;;;5088305;28;20584;-66
2023/03/17 03:18:33;;;;;;;54.10;29.70;;;3.20;99.90;;;;;;5082895;27;20998;-66
2023/03/17 03:21:22;;;;;;;56.67;30.03;;;3.20;99.90;;;;;;5091900;28;20328;-66
2023/03/17 03:24:11;;;;;;;59.50;30.97;;;3.30;99.90;;;;;;5075629;28;20288;-66
2023/03/17 03:27:01;;;;;;;55.93;29.53;;;3.30;99.90;;;;;;5072745;28;20854;-66
2023/03/17 03:29:51;;;;;;;58.57;30.90;;;3.30;99.90;;;;;;5078248;28;20248;-65
2023/03/17 03:32:40;;;;;;;61.50;31.43;;;3.30;99.90;;;;;;5082175;28;20624;-64
2023/03/17 03:35:29;;;;;;;55.47;30.90;;;3.50;99.90;;;;;;5088938;28;20223;-65
2023/03/17 03:38:18;;;;;;;61.23;31.03;;;3.30;99.90;;;;;;5079491;28;20311;-67
2023/03/17 03:41:07;;;;;;;60.20;31.10;;;3.20;99.90;;;;;;5080048;28;20227;-66
2023/03/17 03:43:56;;;;;;;57.90;31.37;;;3.20;99.90;;;;;;5076302;28;20317;-65
2023/03/17 03:46:46;;;;;;;60.87;32.03;;;3.20;99.90;;;;;;5072757;28;20644;-67
2023/03/17 03:49:35;;;;;;;60.33;31.97;;;3.20;99.90;;;;;;5074432;28;20299;-67
2023/03/17 03:52:24;;;;;;;65.40;32.03;;;3.30;99.90;;;;;;5078861;28;20329;-67
2023/03/17 03:55:13;;;;;;;59.70;31.17;;;3.40;99.90;;;;;;5079567;28;20729;-66
2023/03/17 03:58:02;;;;;;;62.70;33.47;;;3.40;99.90;;;;;;5079749;28;20318;-66
2023/03/17 04:00:50;;;;;;;62.50;33.37;;;3.10;99.90;;;;;;5077211;28;20213;-67
2023/03/17 04:03:41;;;;;;;64.80;33.67;;;3.10;99.90;;;;;;5074458;28;20222;-64
2023/03/17 04:06:29;;;;;;;69.43;35.23;;;3.00;99.90;;;;;;5087541;28;20651;-64
2023/03/17 04:09:18;;;;;;;70.07;36.53;;;3.00;99.90;;;;;;5079503;28;20235;-64
2023/03/17 04:12:08;;;;;;;79.03;38.20;;;2.90;99.90;;;;;;5077659;28;20644;-65
2023/03/17 04:14:57;;;;;;;82.87;38.67;;;2.70;99.90;;;;;;5076542;28;20252;-65
2023/03/17 04:17:46;;;;;;;76.97;37.67;;;2.70;99.90;;;;;;5089439;28;20333;-64
2023/03/17 04:20:37;;;;;;;79.60;38.10;;;2.60;99.90;;;;;;5077670;28;20253;-65
2023/03/17 04:23:26;;;;;;;70.50;38.00;;;2.70;99.90;;;;;;5075412;28;20226;-66
2023/03/17 04:26:16;;;;;;;76.60;37.37;;;2.70;99.90;;;;;;5069242;28;20228;-65
2023/03/17 04:29:06;;;;;;;72.03;38.10;;;2.70;99.90;;;;;;5075769;28;20304;-66
2023/03/17 04:31:55;;;;;;;76.97;38.70;;;2.70;99.90;;;;;;5077092;28;20227;-65
2023/03/17 04:34:45;;;;;;;73.20;37.53;;;2.60;99.90;;;;;;5082436;28;20216;-66
2023/03/17 04:37:35;;;;;;;73.10;38.73;;;2.50;99.90;;;;;;5078448;28;20241;-65
2023/03/17 04:40:24;;;;;;;79.50;39.53;;;2.60;99.90;;;;;;5076632;28;20233;-65
2023/03/17 04:43:13;;;;;;;69.63;37.07;;;2.50;99.90;;;;;;5089117;28;20222;-65
2023/03/17 04:46:02;;;;;;;75.63;38.43;;;2.60;99.90;;;;;;5078231;28;20234;-65
2023/03/17 04:48:51;;;;;;;80.20;40.17;;;2.50;99.90;;;;;;5088944;28;20309;-66
2023/03/17 04:51:40;;;;;;;82.23;39.00;;;2.50;99.90;;;;;;5084328;28;20265;-66
2023/03/17 04:54:30;;;;;;;76.03;39.10;;;2.40;99.90;;;;;;5076615;28;20241;-65
2023/03/17 04:57:19;;;;;;;66.33;36.97;;;2.30;99.90;;;;;;5087928;28;20231;-69
2023/03/17 05:00:10;;;;;;;65.57;36.57;;;2.40;99.90;;;;;;5079417;27;20228;-66
2023/03/17 05:02:59;;;;;;;73.80;37.03;;;2.50;99.90;;;;;;5077763;28;20314;-65
2023/03/17 05:05:49;;;;;;;71.87;36.27;;;2.40;99.90;;;;;;5080086;28;20316;-66
2023/03/17 05:08:38;;;;;;;66.53;36.13;;;2.40;99.90;;;;;;5082559;28;20226;-65
2023/03/17 05:11:32;;;;;;;76.73;37.73;;;2.40;99.90;;;;;;5078793;28;20653;-66
2023/03/17 05:14:21;;;;;;;71.17;35.97;;;2.40;99.90;;;;;;5078466;28;20233;-66
2023/03/17 05:17:10;;;;;;;63.37;36.13;;;2.30;99.90;;;;;;5080983;28;20722;-66
2023/03/17 05:19:59;;;;;;;69.13;36.60;;;2.30;99.90;;;;;;5081144;28;20939;-67
2023/03/17 05:22:48;;;;;;;66.27;35.23;;;2.30;99.90;;;;;;5080054;28;20222;-64
2023/03/17 05:25:37;;;;;;;63.10;35.20;;;2.30;99.90;;;;;;5078819;28;20230;-67
2023/03/17 05:28:27;;;;;;;64.93;34.90;;;2.40;99.90;;;;;;5081846;27;20658;-66
2023/03/17 05:31:17;;;;;;;68.23;35.90;;;2.40;99.90;;;;;;5080139;28;20602;-66
2023/03/17 05:34:06;;;;;;;64.70;34.67;;;2.40;99.90;;;;;;5074514;28;20717;-65
2023/03/17 05:36:55;;;;;;;65.20;34.30;;;2.50;99.90;;;;;;5077317;28;20226;-65
2023/03/17 05:39:44;;;;;;;63.20;34.13;;;2.50;99.90;;;;;;5076980;28;20223;-65
2023/03/17 05:42:33;;;;;;;61.93;33.80;;;2.60;99.90;;;;;;5081691;28;20233;-64
2023/03/17 05:45:24;;;;;;;64.73;33.50;;;2.60;99.90;;;;;;5076694;28;20247;-65
2023/03/17 05:48:12;;;;;;;59.97;31.77;;;2.70;99.90;;;;;;5090667;28;20277;-67
2023/03/17 05:51:01;;;;;;;59.33;31.27;;;2.90;99.90;;;;;;5074412;28;20235;-68
2023/03/17 05:53:51;;;;;;;60.93;32.00;;;3.10;99.90;;;;;;5078069;28;20248;-65
2023/03/17 05:56:41;;;;;;;60.57;32.70;;;3.20;99.90;;;;;;5082970;28;20234;-63
2023/03/17 05:59:30;;;;;;;63.27;31.13;;;3.10;99.90;;;;;;5074522;28;20219;-68
2023/03/17 06:02:21;;;;;;;57.73;30.17;;;3.00;99.90;;;;;;5074836;28;21025;-63
2023/03/17 06:05:10;;;;;;;60.13;30.77;;;3.30;99.90;;;;;;5073654;28;20223;-66
2023/03/17 06:07:59;;;;;;;58.67;30.97;;;3.30;99.90;;;;;;5076291;28;20831;-65
2023/03/17 06:10:48;;;;;;;58.00;31.33;;;3.60;99.90;;;;;;5068833;28;20269;-63
2023/03/17 06:13:37;;;;;;;57.83;32.33;;;3.60;99.90;;;;;;5080276;28;20227;-64
2023/03/17 06:16:29;;;;;;;63.00;31.90;;;3.70;99.90;;;;;;5078839;28;20233;-64
2023/03/17 06:19:20;;;;;;;53.53;31.27;;;3.70;99.90;;;;;;5074347;28;20234;-64
2023/03/17 06:22:09;;;;;;;56.10;31.63;;;3.90;99.90;;;;;;5081023;28;20234;-64
2023/03/17 06:24:58;;;;;;;55.60;31.03;;;3.80;99.90;;;;;;5080916;28;20226;-67
2023/03/17 06:27:47;;;;;;;52.80;29.97;;;3.90;99.90;;;;;;5090133;28;20235;-64
2023/03/17 06:30:37;;;;;;;52.17;29.67;;;3.80;99.90;;;;;;5079594;28;20235;-65
2023/03/17 06:33:28;;;;;;;52.73;28.93;;;3.80;99.90;;;;;;5084177;28;20290;-69
2023/03/17 06:36:18;;;;;;;51.53;28.43;;;3.80;99.90;;;;;;5081131;28;20238;-65
2023/03/17 06:39:08;;;;;;;47.97;27.47;;;3.80;99.90;;;;;;5071285;28;20941;-62
2023/03/17 06:41:57;;;;;;;52.53;28.53;;;4.00;99.90;;;;;;5078693;28;20223;-69
2023/03/17 06:44:45;;;;;;;55.93;29.57;;;4.20;99.90;;;;;;5074938;28;20231;-65
2023/03/17 06:47:36;;;;;;;55.63;28.67;;;4.30;99.90;;;;;;5078514;28;20253;-63
2023/03/17 06:50:25;;;;;;;46.33;27.17;;;4.30;99.90;;;;;;5072744;28;20713;-65
2023/03/17 06:53:15;;;;;;;47.27;25.27;;;4.40;99.90;;;;;;5078269;28;20223;-63
2023/03/17 06:56:05;;;;;;;48.70;25.60;;;4.30;99.90;;;;;;5077870;28;20322;-63
2023/03/17 06:58:53;;;;;;;51.10;26.83;;;4.30;99.90;;;;;;5079441;28;20243;-63
2023/03/17 07:01:43;;;;;;;49.23;25.37;;;4.30;99.90;;;;;;5080976;28;20268;-64
2023/03/17 07:04:32;;;;;;;42.63;24.37;;;4.40;99.90;;;;;;5076754;28;20246;-65
2023/03/17 07:07:21;;;;;;;42.53;24.97;;;4.70;99.90;;;;;;5082336;28;20224;-65
2023/03/17 07:10:16;;;;;;;43.10;25.03;;;4.70;99.90;;;;;;5090815;28;20216;-65
2023/03/17 07:13:06;;;;;;;48.87;26.47;;;4.70;99.90;;;;;;5081421;28;20247;-65
2023/03/17 07:15:56;;;;;;;45.63;25.73;;;4.60;99.90;;;;;;5079099;28;20248;-66
2023/03/17 07:18:48;;;;;;;48.27;25.73;;;4.70;99.90;;;;;;5084980;28;20345;-66
2023/03/17 07:21:37;;;;;;;40.43;24.37;;;4.70;99.90;;;;;;5081755;28;20239;-66
2023/03/17 07:24:26;;;;;;;44.70;24.53;;;4.70;99.90;;;;;;5091855;27;20317;-63
2023/03/17 07:27:16;;;;;;;42.80;23.73;;;4.70;99.90;;;;;;5080873;28;20241;-64
2023/03/17 07:30:06;;;;;;;44.83;24.93;;;4.80;99.90;;;;;;5074622;28;20224;-65
2023/03/17 07:32:57;;;;;;;43.30;24.63;;;4.90;99.90;;;;;;5080112;28;20665;-64
2023/03/17 07:35:46;;;;;;;39.37;21.70;;;5.00;99.90;;;;;;5105161;27;20224;-65
2023/03/17 07:38:35;;;;;;;39.43;22.00;;;5.00;99.90;;;;;;5080601;28;20224;-65
2023/03/17 07:41:24;;;;;;;39.70;22.93;;;5.00;99.90;;;;;;5074797;28;20914;-64
2023/03/17 07:44:15;;;;;;;40.87;22.67;;;5.10;99.90;;;;;;5081285;28;20219;-64
2023/03/17 07:47:04;;;;;;;44.90;23.00;;;5.10;99.90;;;;;;5079192;28;20721;-64
2023/03/17 07:49:53;;;;;;;37.83;21.53;;;5.30;99.90;;;;;;5072677;28;20228;-64
2023/03/17 07:52:42;;;;;;;42.93;22.87;;;5.40;99.90;;;;;;5078183;28;20219;-63
2023/03/17 07:55:32;;;;;;;43.77;21.97;;;5.50;99.90;;;;;;5078014;28;20231;-64
2023/03/17 07:58:21;;;;;;;39.63;22.00;;;5.60;99.90;;;;;;5079900;27;20305;-64
2023/03/17 08:01:11;;;;;;;35.10;20.33;;;6.00;99.90;;;;;;5081316;27;20253;-65
2023/03/17 08:04:00;;;;;;;39.57;21.53;;;6.30;99.90;;;;;;5078987;28;21244;-63
2023/03/17 08:06:49;;;;;;;34.73;20.63;;;6.90;99.90;;;;;;5080903;28;20231;-63
2023/03/17 08:09:39;;;;;;;32.63;19.87;;;7.80;99.90;;;;;;5080980;28;20220;-63
2023/03/17 08:12:27;;;;;;;33.33;20.33;;;8.60;99.90;;;;;;5075123;28;20219;-63
2023/03/17 08:15:16;;;;;;;35.00;20.23;;;9.30;99.90;;;;;;5096781;27;20238;-64
2023/03/17 08:18:06;;;;;;;30.77;19.30;;;9.40;99.90;;;;;;5080170;28;20226;-65
2023/03/17 08:20:55;;;;;;;35.97;19.80;;;9.60;99.90;;;;;;5081493;28;20217;-65
2023/03/17 08:23:45;;;;;;;30.70;18.33;;;9.60;99.90;;;;;;5077635;28;20347;-65
2023/03/17 08:26:33;;;;;;;30.63;18.67;;;9.90;99.90;;;;;;5081347;28;20793;-65
2023/03/17 08:29:22;;;;;;;33.80;17.53;;;10.50;99.90;;;;;;5076191;28;20473;-64
2023/03/17 08:32:12;;;;;;;28.70;16.77;;;10.90;99.90;;;;;;5082026;28;20226;-63
2023/03/17 08:35:05;;;;;;;30.38;15.93;;;11.20;99.90;;;;;;5076028;28;20738;-63
2023/03/17 08:37:53;;;;;;;31.95;15.75;;;11.80;99.90;;;;;;5080090;28;20820;-63
2023/03/17 08:40:44;;;;;;;27.90;14.48;;;12.50;99.90;;;;;;5076967;28;20236;-64
2023/03/17 08:43:33;;;;;;;21.60;13.52;;;12.60;99.90;;;;;;5080457;28;20555;-63
2023/03/17 08:46:24;;;;;;;23.30;14.02;;;12.20;99.90;;;;;;5077267;28;20306;-64
2023/03/17 08:49:13;;;;;;;21.30;12.40;;;11.60;99.90;;;;;;5071170;28;20215;-65
2023/03/17 08:52:04;;;;;;;22.67;13.27;;;11.00;99.90;;;;;;5078649;28;20730;-64
2023/03/17 08:54:53;;;;;;;18.98;10.68;;;11.20;99.90;;;;;;5076853;28;20326;-65
2023/03/17 08:57:43;;;;;;;16.40;10.48;;;11.10;99.90;;;;;;5074892;28;20311;-65
2023/03/17 09:00:32;;;;;;;18.58;10.98;;;10.50;99.90;;;;;;5078499;28;20223;-64
2023/03/17 09:03:21;;;;;;;19.50;12.65;;;10.80;99.90;;;;;;5081870;28;20602;-62
2023/03/17 09:06:11;;;;;;;19.73;10.55;;;11.60;99.90;;;;;;5076324;28;20246;-63
2023/03/17 09:09:01;;;;;;;21.10;12.00;;;11.70;99.90;;;;;;5078706;28;20227;-64
2023/03/17 09:11:50;;;;;;;20.70;12.05;;;11.80;99.90;;;;;;5075913;28;20643;-62
2023/03/17 09:14:39;;;;;;;13.27;7.28;;;12.00;99.90;;;;;;5090395;28;20658;-64
2023/03/17 09:17:33;;;;;;;13.98;8.00;;;12.10;99.90;;;;;;5078490;28;20235;-64
2023/03/17 09:20:22;;;;;;;15.93;7.50;;;11.00;99.90;;;;;;5079769;28;20330;-63
2023/03/17 09:23:12;;;;;;;11.88;6.80;;;10.80;99.90;;;;;;5075962;28;20315;-62
2023/03/17 09:26:03;;;;;;;10.85;5.75;;;10.40;99.90;;;;;;5076227;28;20959;-62
2023/03/17 09:28:52;;;;;;;9.13;6.05;;;10.20;99.90;;;;;;5090164;28;20219;-63
2023/03/17 09:31:42;;;;;;;12.23;6.13;;;9.80;99.90;;;;;;5088843;27;20227;-64
2023/03/17 09:34:31;;;;;;;10.90;5.72;;;9.70;99.90;;;;;;5078292;28;20683;-63
2023/03/17 09:37:20;;;;;;;9.82;5.70;;;9.70;99.90;;;;;;5077738;28;20220;-63
2023/03/17 09:40:16;;;;;;;13.32;6.05;;;9.60;99.90;;;;;;5079640;28;20336;-62
2023/03/17 09:43:16;;;;;;;12.55;6.20;;;9.50;99.90;;;;;;5077574;28;20250;-62
2023/03/17 09:46:21;;;;;;;12.35;5.82;;;9.60;99.90;;;;;;5072951;28;20237;-64
2023/03/17 09:49:14;;;;;;;9.63;5.50;;;9.50;99.90;;;;;;5073993;28;20219;-64
2023/03/17 09:52:03;;;;;;;8.15;5.25;;;9.50;99.90;;;;;;5077955;28;20248;-65
2023/03/17 09:54:52;;;;;;;9.25;5.30;;;9.60;99.90;;;;;;5077073;28;20784;-61
2023/03/17 09:57:41;;;;;;;12.40;5.57;;;9.60;99.90;;;;;;5081949;28;20303;-62
2023/03/17 10:00:32;;;;;;;10.70;5.05;;;9.60;99.90;;;;;;5078946;28;20298;-63
2023/03/17 10:03:21;;;;;;;10.40;5.55;;;9.50;99.90;;;;;;5076511;28;20215;-61
2023/03/17 10:06:24;;;;;;;7.93;5.25;;;9.50;99.90;;;;;;5073856;28;20986;-62
2023/03/17 10:09:21;;;;;;;8.70;5.10;;;9.40;99.90;;;;;;5077761;28;20287;-63
2023/03/17 10:12:24;;;;;;;9.35;4.95;;;9.50;99.90;;;;;;5076050;28;20241;-62
2023/03/17 10:15:21;;;;;;;8.95;5.70;;;9.50;99.90;;;;;;5088177;27;20221;-62
2023/03/17 10:18:14;;;;;;;8.55;5.15;;;9.50;99.90;;;;;;5067756;28;20220;-63
2023/03/17 10:21:06;;;;;;;11.98;5.40;;;9.50;99.90;;;;;;5080258;28;20219;-64
2023/03/17 10:23:58;;;;;;;9.60;5.30;;;9.60;99.90;;;;;;5083124;27;20220;-62
2023/03/17 10:26:49;;;;;;;11.07;5.88;;;9.60;99.90;;;;;;5083314;28;20404;-62
2023/03/17 10:29:39;;;;;;;14.95;6.10;;;9.60;99.90;;;;;;5080042;28;20726;-65
2023/03/17 10:32:40;;;;;;;13.45;6.18;;;9.40;99.90;;;;;;5081868;28;20219;-64
2023/03/17 10:35:34;;;;;;;10.70;6.18;;;9.20;99.90;;;;;;5084975;28;20262;-64
2023/03/17 10:38:25;;;;;;;11.23;6.28;;;9.40;99.90;;;;;;5082539;28;20316;-61
2023/03/17 10:41:15;;;;;;;12.00;6.38;;;9.40;99.90;;;;;;5083068;28;20220;-62
2023/03/17 10:44:09;;;;;;;13.18;5.95;;;9.30;99.90;;;;;;5078357;28;20261;-63
2023/03/17 10:46:59;;;;;;;9.70;5.88;;;9.60;99.90;;;;;;5086753;27;20607;-61
2023/03/17 10:49:48;;;;;;;13.02;6.13;;;9.70;99.90;;;;;;5082340;28;20228;-61
2023/03/17 10:52:39;;;;;;;12.50;6.57;;;9.70;99.90;;;;;;5082882;28;20350;-62
2023/03/17 10:55:32;;;;;;;12.25;5.80;;;9.60;99.90;;;;;;5081075;28;20857;-64
2023/03/17 10:58:25;;;;;;;10.80;6.22;;;9.80;99.90;;;;;;5107315;27;20231;-63
2023/03/17 11:01:20;;;;;;;13.40;6.35;;;9.80;99.90;;;;;;5077981;28;20372;-62
2023/03/17 11:04:28;;;;;;;20.52;6.30;;;9.70;99.90;;;;;;5077808;28;20236;-61
2023/03/17 11:07:20;;;;;;;12.57;6.45;;;9.80;99.90;;;;;;5087268;28;20265;-64
2023/03/17 11:10:18;;;;;;;12.35;5.95;;;10.00;99.90;;;;;;5066042;28;20248;-65
2023/03/17 11:13:09;;;;;;;9.63;5.93;;;10.10;99.90;;;;;;5080664;28;20230;-65
2023/03/17 11:16:09;;;;;;;14.82;7.18;;;10.30;99.90;;;;;;5082733;28;20246;-67
2023/03/17 11:19:01;;;;;;;9.80;6.45;;;10.10;99.90;;;;;;5082548;28;20223;-65
2023/03/17 11:21:56;;;;;;;13.35;6.47;;;9.70;99.90;;;;;;5082044;28;20236;-65
2023/03/17 11:24:56;;;;;;;10.07;6.18;;;9.80;99.90;;;;;;5076192;28;20216;-66
2023/03/17 11:27:52;;;;;;;9.85;6.13;;;10.10;99.90;;;;;;5075365;28;20215;-65
2023/03/17 11:30:46;;;;;;;15.05;6.97;;;10.10;99.90;;;;;;5090226;28;20223;-64
2023/03/17 11:33:39;;;;;;;14.13;6.68;;;10.40;99.90;;;;;;5073096;28;20231;-64
2023/03/17 11:36:45;;;;;;;11.40;6.15;;;10.40;99.90;;;;;;5081431;28;20571;-65
2023/03/17 11:39:42;;;;;;;11.60;6.80;;;10.30;99.90;;;;;;5079565;28;20309;-65
2023/03/17 11:42:37;;;;;;;9.80;7.15;;;10.40;99.90;;;;;;5079067;28;20227;-64
2023/03/17 11:45:32;;;;;;;14.35;7.88;;;10.60;99.90;;;;;;5079899;28;20772;-64
2023/03/17 11:48:29;;;;;;;13.05;7.25;;;10.60;99.90;;;;;;5079252;28;20247;-65
2023/03/17 11:51:26;;;;;;;14.43;7.40;;;10.60;99.90;;;;;;5084278;28;20231;-63
2023/03/17 11:54:23;;;;;;;13.63;7.90;;;10.60;99.90;;;;;;5082365;28;20223;-64
2023/03/17 11:57:19;;;;;;;15.82;7.85;;;10.70;99.90;;;;;;5094759;27;20220;-64
2023/03/17 12:00:19;;;;;;;16.63;9.00;;;10.60;99.90;;;;;;5080312;28;20631;-65
2023/03/17 12:03:18;;;;;;;17.98;8.82;;;10.10;99.90;;;;;;5080299;28;20231;-63
2023/03/17 12:06:14;;;;;;;16.80;8.18;;;10.40;99.90;;;;;;5076960;28;20289;-63
2023/03/17 12:09:15;;;;;;;15.18;8.20;;;10.40;99.90;;;;;;5081387;28;20227;-63
2023/03/17 12:12:05;;;;;;;14.57;8.07;;;10.20;99.90;;;;;;5081379;28;20263;-62
2023/03/17 12:14:58;;;;;;;13.73;8.32;;;10.40;99.90;;;;;;5073188;28;20216;-66
2023/03/17 12:17:54;;;;;;;16.92;8.52;;;10.50;99.90;;;;;;5114914;27;20230;-64
2023/03/17 12:20:50;;;;;;;14.75;8.88;;;10.40;99.90;;;;;;5092386;28;20222;-64
2023/03/17 12:23:46;;;;;;;16.38;8.88;;;10.50;99.90;;;;;;5082225;28;20253;-64
2023/03/17 12:26:38;;;;;;;13.93;9.40;;;10.50;99.90;;;;;;5090744;28;20239;-65
2023/03/17 12:29:42;;;;;;;16.30;9.00;;;10.10;99.90;;;;;;5084618;28;20254;-65
2023/03/17 12:32:38;;;;;;;14.25;9.20;;;9.90;99.90;;;;;;5079621;28;20302;-67
2023/03/17 12:35:30;;;;;;;21.40;9.23;;;10.30;99.90;;;;;;5080214;28;20220;-66
2023/03/17 12:38:28;;;;;;;14.65;9.48;;;10.50;99.90;;;;;;5078228;28;20447;-66
2023/03/17 12:41:35;;;;;;;18.02;9.32;;;10.50;99.90;;;;;;5078888;27;20303;-66
2023/03/17 12:44:37;;;;;;;18.55;9.27;;;10.70;99.90;;;;;;5080294;27;20698;-64
2023/03/17 12:47:48;;;;;;;15.98;9.00;;;10.70;99.90;;;;;;5077686;28;20770;-65
2023/03/17 12:51:04;;;;;;;18.60;8.73;;;10.70;99.90;;;;;;5079084;28;20311;-66
2023/03/17 12:53:55;;;;;;;22.17;9.73;;;10.70;99.90;;;;;;5068375;28;20958;-66
2023/03/17 12:56:46;;;;;;;18.83;9.52;;;10.70;99.90;;;;;;5087374;28;20897;-66
2023/03/17 12:59:36;;;;;;;19.33;8.75;;;10.90;99.90;;;;;;5073501;28;20223;-66
2023/03/17 13:02:37;;;;;;;16.67;8.38;;;10.90;99.90;;;;;;5074485;28;20237;-67
2023/03/17 13:05:32;;;;;;;16.27;7.30;;;10.60;99.90;;;;;;5087123;28;20318;-65
2023/03/17 13:08:27;;;;;;;14.82;8.05;;;10.70;99.90;;;;;;5088893;28;20219;-65
2023/03/17 13:11:19;;;;;;;13.43;6.82;;;10.80;99.90;;;;;;5079907;28;20224;-66
2023/03/17 13:14:23;;;;;;;12.05;6.70;;;10.50;99.90;;;;;;5085174;28;20241;-65
2023/03/17 13:17:33;;;;;;;13.37;7.67;;;10.60;99.90;;;;;;5058896;28;20510;-66
2023/03/17 13:20:37;;;;;;;12.85;6.88;;;10.50;99.90;;;;;;5090582;27;20219;-65
2023/03/17 13:23:35;;;;;;;12.05;5.88;;;10.50;99.90;;;;;;5078020;28;20223;-66
2023/03/17 13:27:00;;;;;;;12.65;6.13;;;10.60;99.90;;;;;;5092338;28;20230;-66
2023/03/17 13:29:49;;;;;;;14.90;6.03;;;10.70;99.90;;;;;;5075827;28;20786;-67
2023/03/17 13:32:38;;;;;;;14.82;6.05;;;10.60;99.90;;;;;;5077564;28;20785;-67
2023/03/17 13:35:46;;;;;;;11.80;6.28;;;10.50;99.90;;;;;;5076703;28;20223;-66
2023/03/17 13:38:54;;;;;;;12.75;6.88;;;10.60;99.90;;;;;;5081914;28;20239;-67
2023/03/17 13:42:19;;;;;;;13.40;6.90;;;10.60;99.90;;;;;;5079402;28;20269;-68
2023/03/17 13:45:22;;;;;;;16.90;7.00;;;10.60;99.90;;;;;;5081118;28;20227;-67
2023/03/17 13:48:33;;;;;;;12.73;6.47;;;10.60;99.90;;;;;;5077350;28;20963;-65
2023/03/17 13:51:23;;;;;;;12.82;7.25;;;10.60;99.90;;;;;;5077298;28;20792;-65
2023/03/17 13:54:28;;;;;;;13.25;7.15;;;10.70;99.90;;;;;;5075036;28;20223;-67
2023/03/17 13:57:29;;;;;;;17.10;8.10;;;10.70;99.90;;;;;;5079105;28;20223;-65
2023/03/17 14:00:23;;;;;;;15.25;7.95;;;10.60;99.90;;;;;;5097772;28;20226;-67
2023/03/17 14:03:16;;;;;;;17.35;8.35;;;10.40;99.90;;;;;;5088436;28;20632;-64
2023/03/17 14:06:10;;;;;;;12.60;7.85;;;10.40;99.90;;;;;;5081820;28;20761;-65
2023/03/17 14:09:06;;;;;;;14.45;8.38;;;10.50;99.90;;;;;;5082544;28;20255;-65
2023/03/17 14:11:59;;;;;;;17.77;8.23;;;10.50;99.90;;;;;;5083199;28;20231;-66
2023/03/17 14:14:53;;;;;;;16.23;7.78;;;10.50;99.90;;;;;;5078760;28;20254;-65
2023/03/17 14:17:46;;;;;;;14.80;8.02;;;10.50;99.90;;;;;;5104848;27;20981;-66
2023/03/17 14:20:35;;;;;;;22.70;8.68;;;10.50;99.90;;;;;;5085103;28;20246;-66
2023/03/17 14:23:25;;;;;;;13.93;7.90;;;10.50;99.90;;;;;;5082925;28;20227;-67
2023/03/17 14:26:14;;;;;;;12.52;7.20;;;10.30;99.90;;;;;;5095515;28;20403;-66
2023/03/17 14:29:04;;;;;;;51.55;9.43;;;10.30;99.90;;;;;;5082631;28;20230;-67
2023/03/17 14:32:03;;;;;;;25.55;8.00;;;10.30;99.90;;;;;;5081910;28;20318;-67
2023/03/17 14:34:58;;;;;;;42.60;8.75;;;10.10;99.90;;;;;;5080805;28;20216;-67
2023/03/17 14:37:47;;;;;;;142.93;15.20;;;10.20;99.90;;;;;;5109269;27;20265;-67
2023/03/17 14:40:35;;;;;;;17.58;8.50;;;10.20;99.90;;;;;;5080301;28;22220;-67
2023/03/17 14:43:24;;;;;;;17.40;7.97;;;10.10;99.90;;;;;;5083430;28;20232;-67
2023/03/17 14:46:16;;;;;;;12.95;8.00;;;10.20;99.90;;;;;;5082586;28;20220;-67